Time;durP1;ratioP1;P1;durP2;ratioP2;P2;SDS_P1;SDS_P2;PMS_P1;PMS_P2;Temp;Humidity;BMP_temperature;BMP_pressure;BME280_temperature;BME280_humidity;BME280_pressure;Samples;Min_cycle;Max_cycle;Signal;HPM_P1;HPM_P2
2023/03/04 00:02:20;;;;;;;108.80;46.30;;;;;;;;;;5094943;28;20451;-71
2023/03/04 00:04:47;;;;;;;107.17;44.70;;;;;;;;;;5094707;28;20450;-71
2023/03/04 00:07:15;;;;;;;104.67;42.30;;;;;;;;;;5094141;28;20446;-71
2023/03/04 00:09:43;;;;;;;97.27;44.03;;;;;;;;;;5094809;28;20451;-71
2023/03/04 00:12:10;;;;;;;91.93;43.57;;;;;;;;;;5094662;28;20446;-71
2023/03/04 00:14:37;;;;;;;96.93;42.97;;;;;;;;;;5094306;28;20487;-71
2023/03/04 00:17:05;;;;;;;91.10;42.03;;;;;;;;;;5094519;28;20943;-72
2023/03/04 00:19:34;;;;;;;91.00;43.87;;;;;;;;;;5094444;28;20451;-71
2023/03/04 00:22:01;;;;;;;94.67;43.17;;;;;;;;;;5094398;28;20454;-71
2023/03/04 00:24:28;;;;;;;85.70;43.73;;;;;;;;;;5094347;28;20443;-72
2023/03/04 00:26:55;;;;;;;112.97;43.77;;;;;;;;;;5094453;28;20455;-71
2023/03/04 00:29:23;;;;;;;92.67;42.43;;;;;;;;;;5094310;28;20442;-71
2023/03/04 00:31:50;;;;;;;96.50;42.17;;;;;;;;;;5094251;28;20493;-70
2023/03/04 00:34:17;;;;;;;98.27;41.57;;;;;;;;;;5093856;28;20489;-72
2023/03/04 00:36:45;;;;;;;82.77;40.03;;;;;;;;;;5094278;28;20818;-71
2023/03/04 00:39:12;;;;;;;89.27;44.07;;;;;;;;;;5094088;28;20798;-71
2023/03/04 00:41:39;;;;;;;101.50;46.60;;;;;;;;;;5093946;28;20478;-71
2023/03/04 00:44:07;;;;;;;97.93;43.73;;;;;;;;;;5093839;28;20461;-71
2023/03/04 00:46:34;;;;;;;88.73;41.77;;;;;;;;;;5094064;28;20450;-72
2023/03/04 00:49:01;;;;;;;113.20;45.27;;;;;;;;;;5094022;28;20446;-71
2023/03/04 00:51:28;;;;;;;105.20;42.50;;;;;;;;;;5093757;28;20487;-70
2023/03/04 00:53:57;;;;;;;114.40;46.67;;;;;;;;;;5093558;28;20486;-72
2023/03/04 00:56:24;;;;;;;105.00;41.50;;;;;;;;;;5093795;28;20512;-70
2023/03/04 00:58:51;;;;;;;98.20;41.53;;;;;;;;;;5093733;28;20446;-71
2023/03/04 01:01:18;;;;;;;106.90;47.80;;;;;;;;;;5093608;28;20997;-71
2023/03/04 01:03:45;;;;;;;117.63;47.70;;;;;;;;;;5093782;28;20443;-72
2023/03/04 01:06:12;;;;;;;86.43;42.90;;;;;;;;;;5093163;28;20450;-71
2023/03/04 01:08:39;;;;;;;91.17;43.37;;;;;;;;;;5093738;28;20450;-72
2023/03/04 01:11:08;;;;;;;88.27;41.10;;;;;;;;;;5093425;28;20478;-71
2023/03/04 01:13:35;;;;;;;89.13;42.20;;;;;;;;;;5093361;28;20447;-71
2023/03/04 01:16:03;;;;;;;105.90;42.23;;;;;;;;;;5093478;28;20828;-70
2023/03/04 01:18:31;;;;;;;120.20;42.77;;;;;;;;;;5093603;28;20832;-70
2023/03/04 01:20:58;;;;;;;98.37;45.30;;;;;;;;;;5093381;28;20474;-71
2023/03/04 01:23:25;;;;;;;102.67;43.90;;;;;;;;;;5093272;28;20462;-71
2023/03/04 01:25:52;;;;;;;103.60;43.77;;;;;;;;;;5093280;28;20511;-71
2023/03/04 01:28:21;;;;;;;96.73;43.70;;;;;;;;;;5093282;28;20822;-71
2023/03/04 01:30:48;;;;;;;87.77;43.00;;;;;;;;;;5093192;28;20478;-71
2023/03/04 01:33:15;;;;;;;91.03;39.77;;;;;;;;;;5093187;28;20802;-71
2023/03/04 01:35:42;;;;;;;102.37;42.80;;;;;;;;;;5092875;28;20497;-71
2023/03/04 01:38:09;;;;;;;89.87;39.33;;;;;;;;;;5093066;28;20461;-71
2023/03/04 01:40:37;;;;;;;93.30;42.30;;;;;;;;;;5092953;28;20486;-71
2023/03/04 01:43:04;;;;;;;93.80;43.50;;;;;;;;;;5093038;28;20454;-72
2023/03/04 01:45:33;;;;;;;107.53;42.90;;;;;;;;;;5093303;28;20447;-71
2023/03/04 01:48:00;;;;;;;103.50;43.93;;;;;;;;;;5092988;28;20454;-72
2023/03/04 01:50:29;;;;;;;95.70;43.67;;;;;;;;;;5092662;28;20852;-71
2023/03/04 01:52:56;;;;;;;100.77;42.20;;;;;;;;;;5092999;28;20462;-71
2023/03/04 01:55:24;;;;;;;99.63;43.47;;;;;;;;;;5092578;28;20494;-71
2023/03/04 01:57:52;;;;;;;113.10;45.60;;;;;;;;;;5093022;28;20457;-71
2023/03/04 02:00:21;;;;;;;92.37;41.20;;;;;;;;;;5092783;28;20535;-71
2023/03/04 02:02:51;;;;;;;90.10;39.07;;;;;;;;;;5092955;28;20454;-70
2023/03/04 02:05:18;;;;;;;94.43;43.50;;;;;;;;;;5092585;28;20450;-70
2023/03/04 02:07:46;;;;;;;89.13;43.47;;;;;;;;;;5092337;28;20806;-71
2023/03/04 02:10:13;;;;;;;107.93;45.30;;;;;;;;;;5092796;28;21002;-70
2023/03/04 02:12:40;;;;;;;101.53;45.00;;;;;;;;;;5092855;28;20465;-70
2023/03/04 02:15:08;;;;;;;86.77;42.80;;;;;;;;;;5092361;28;20826;-71
2023/03/04 02:17:35;;;;;;;102.83;42.37;;;;;;;;;;5092850;28;20455;-70
2023/03/04 02:20:08;;;;;;;86.37;38.70;;;;;;;;;;5092753;28;20477;-71
2023/03/04 02:22:37;;;;;;;98.60;43.27;;;;;;;;;;5092856;28;20447;-71
2023/03/04 02:25:08;;;;;;;102.60;42.30;;;;;;;;;;5092541;28;20446;-71
2023/03/04 02:27:36;;;;;;;95.03;41.10;;;;;;;;;;5093061;28;20438;-71
2023/03/04 02:30:03;;;;;;;103.13;43.90;;;;;;;;;;5092563;28;20553;-72
2023/03/04 02:32:30;;;;;;;100.87;44.90;;;;;;;;;;5092809;28;20513;-71
2023/03/04 02:34:57;;;;;;;100.60;44.47;;;;;;;;;;5092312;28;20482;-71
2023/03/04 02:37:25;;;;;;;107.10;42.03;;;;;;;;;;5092633;28;20522;-71
2023/03/04 02:39:52;;;;;;;100.40;42.70;;;;;;;;;;5092626;28;20479;-73
2023/03/04 02:42:19;;;;;;;103.37;40.60;;;;;;;;;;5092475;28;20924;-71
2023/03/04 02:44:49;;;;;;;106.53;44.30;;;;;;;;;;5092378;28;20438;-71
2023/03/04 02:47:17;;;;;;;93.97;39.77;;;;;;;;;;5092304;28;20454;-71
2023/03/04 02:49:45;;;;;;;106.77;42.80;;;;;;;;;;5092362;28;20446;-71
2023/03/04 02:52:14;;;;;;;100.60;42.80;;;;;;;;;;5092345;28;20449;-70
2023/03/04 02:54:41;;;;;;;122.40;47.53;;;;;;;;;;5092229;28;20487;-71
2023/03/04 02:57:09;;;;;;;107.60;45.67;;;;;;;;;;5092396;28;20451;-71
2023/03/04 02:59:36;;;;;;;103.00;43.73;;;;;;;;;;5092317;28;20455;-70
2023/03/04 03:02:05;;;;;;;110.37;44.80;;;;;;;;;;5094649;28;20458;-72
2023/03/04 03:04:32;;;;;;;112.10;44.60;;;;;;;;;;5095917;28;20951;-70
2023/03/04 03:06:59;;;;;;;97.77;44.17;;;;;;;;;;5095832;28;20814;-71
2023/03/04 03:09:26;;;;;;;108.17;47.00;;;;;;;;;;5095905;28;20447;-70
2023/03/04 03:11:53;;;;;;;119.57;50.27;;;;;;;;;;5095752;28;20829;-70
2023/03/04 03:14:21;;;;;;;101.97;43.83;;;;;;;;;;5095461;28;20489;-71
2023/03/04 03:16:48;;;;;;;122.23;47.50;;;;;;;;;;5095773;28;20455;-71
2023/03/04 03:19:16;;;;;;;106.93;44.80;;;;;;;;;;5095696;28;20446;-70
2023/03/04 03:21:43;;;;;;;99.53;44.80;;;;;;;;;;5095597;28;20463;-71
2023/03/04 03:24:10;;;;;;;106.43;44.57;;;;;;;;;;5095387;28;20493;-71
2023/03/04 03:26:38;;;;;;;112.80;46.03;;;;;;;;;;5095571;28;20454;-71
2023/03/04 03:29:05;;;;;;;100.03;45.97;;;;;;;;;;5095445;28;20912;-71
2023/03/04 03:31:32;;;;;;;103.63;44.87;;;;;;;;;;5095534;28;20477;-71
2023/03/04 03:34:00;;;;;;;105.40;41.33;;;;;;;;;;5095159;28;20443;-71
2023/03/04 03:36:28;;;;;;;101.57;45.43;;;;;;;;;;5095455;28;20445;-71
2023/03/04 03:38:55;;;;;;;105.87;46.40;;;;;;;;;;5095434;28;20970;-72
2023/03/04 03:41:22;;;;;;;104.30;45.90;;;;;;;;;;5095127;28;20506;-70
2023/03/04 03:43:49;;;;;;;103.63;43.80;;;;;;;;;;5095096;28;20466;-71
2023/03/04 03:46:16;;;;;;;96.50;43.00;;;;;;;;;;5095175;28;20454;-71
2023/03/04 03:48:43;;;;;;;96.83;44.27;;;;;;;;;;5095288;28;20796;-71
2023/03/04 03:51:10;;;;;;;101.47;39.30;;;;;;;;;;5095026;28;20462;-72
2023/03/04 03:53:39;;;;;;;102.07;43.43;;;;;;;;;;5094921;28;20447;-71
2023/03/04 03:56:07;;;;;;;103.47;45.63;;;;;;;;;;5094798;28;20509;-72
2023/03/04 03:58:34;;;;;;;88.23;41.70;;;;;;;;;;5095065;28;20795;-71
2023/03/04 04:01:01;;;;;;;85.50;39.67;;;;;;;;;;5094769;28;20471;-72
2023/03/04 04:03:28;;;;;;;88.10;42.07;;;;;;;;;;5094601;28;20576;-72
2023/03/04 04:05:55;;;;;;;100.33;42.10;;;;;;;;;;5094533;28;20674;-72
2023/03/04 04:08:22;;;;;;;87.00;39.40;;;;;;;;;;5094932;28;20946;-71
2023/03/04 04:10:51;;;;;;;99.50;46.13;;;;;;;;;;5094535;28;20505;-72
2023/03/04 04:13:18;;;;;;;101.23;41.37;;;;;;;;;;5094379;28;20496;-71
2023/03/04 04:15:45;;;;;;;97.63;42.43;;;;;;;;;;5094397;28;20838;-72
2023/03/04 04:18:12;;;;;;;96.17;39.87;;;;;;;;;;5094469;28;20451;-71
2023/03/04 04:20:39;;;;;;;103.67;45.37;;;;;;;;;;5094535;28;20485;-71
2023/03/04 04:23:06;;;;;;;101.47;41.77;;;;;;;;;;5094451;28;20446;-72
2023/03/04 04:25:33;;;;;;;114.03;46.67;;;;;;;;;;5094255;28;20462;-71
2023/03/04 04:28:02;;;;;;;110.23;41.77;;;;;;;;;;5094426;28;20830;-71
2023/03/04 04:30:29;;;;;;;96.37;40.50;;;;;;;;;;5094255;28;20828;-71
2023/03/04 04:33:00;;;;;;;99.90;43.23;;;;;;;;;;5094214;28;20455;-71
2023/03/04 04:35:27;;;;;;;128.67;51.17;;;;;;;;;;5094240;28;20492;-71
2023/03/04 04:37:54;;;;;;;107.00;45.23;;;;;;;;;;5094355;28;20461;-71
2023/03/04 04:40:21;;;;;;;114.53;47.30;;;;;;;;;;5093999;28;20478;-71
2023/03/04 04:42:48;;;;;;;103.30;45.60;;;;;;;;;;5094098;28;20828;-71
2023/03/04 04:45:17;;;;;;;105.23;46.07;;;;;;;;;;5093816;28;20446;-70
2023/03/04 04:47:44;;;;;;;124.40;49.07;;;;;;;;;;5093984;28;20461;-71
2023/03/04 04:50:12;;;;;;;102.57;43.70;;;;;;;;;;5093856;28;20924;-71
2023/03/04 04:52:39;;;;;;;117.93;48.00;;;;;;;;;;5093969;28;20457;-71
2023/03/04 04:55:06;;;;;;;106.43;44.40;;;;;;;;;;5093619;28;20482;-70
2023/03/04 04:57:33;;;;;;;104.63;43.43;;;;;;;;;;5093866;28;20454;-71
2023/03/04 05:00:01;;;;;;;94.30;42.20;;;;;;;;;;5093695;28;20470;-71
2023/03/04 05:02:30;;;;;;;110.27;43.93;;;;;;;;;;5093867;28;20458;-71
2023/03/04 05:04:57;;;;;;;123.33;45.13;;;;;;;;;;5093448;28;20449;-71
2023/03/04 05:07:24;;;;;;;117.87;45.03;;;;;;;;;;5092991;28;20455;-71
2023/03/04 05:09:51;;;;;;;106.03;46.50;;;;;;;;;;5093546;28;20470;-71
2023/03/04 05:12:18;;;;;;;115.07;50.97;;;;;;;;;;5093337;28;20817;-71
2023/03/04 05:14:45;;;;;;;118.00;49.30;;;;;;;;;;5093376;28;20447;-70
2023/03/04 05:17:12;;;;;;;121.37;47.97;;;;;;;;;;5093294;28;20947;-71
2023/03/04 05:19:41;;;;;;;126.67;48.73;;;;;;;;;;5093418;28;20455;-70
2023/03/04 05:22:08;;;;;;;129.27;51.50;;;;;;;;;;5093327;28;20947;-71
2023/03/04 05:24:35;;;;;;;150.23;56.37;;;;;;;;;;5092490;28;20454;-71
2023/03/04 05:27:02;;;;;;;131.50;51.67;;;;;;;;;;5093236;28;20462;-71
2023/03/04 05:29:29;;;;;;;126.30;52.30;;;;;;;;;;5093372;28;20450;-70
2023/03/04 05:31:56;;;;;;;127.50;49.50;;;;;;;;;;5093214;28;20462;-71
2023/03/04 05:34:23;;;;;;;131.87;47.97;;;;;;;;;;5092891;28;20461;-71
2023/03/04 05:36:52;;;;;;;132.37;51.17;;;;;;;;;;5093191;28;20516;-71
2023/03/04 05:39:19;;;;;;;135.90;52.07;;;;;;;;;;5093009;28;20461;-71
2023/03/04 05:41:46;;;;;;;121.53;48.27;;;;;;;;;;5092982;28;20486;-71
2023/03/04 05:44:14;;;;;;;118.77;46.77;;;;;;;;;;5092824;28;20537;-72
2023/03/04 05:46:41;;;;;;;120.47;46.90;;;;;;;;;;5093069;28;20815;-71
2023/03/04 05:49:08;;;;;;;113.50;47.73;;;;;;;;;;5092943;28;20455;-71
2023/03/04 05:51:35;;;;;;;112.90;48.83;;;;;;;;;;5092940;28;20470;-72
2023/03/04 05:54:04;;;;;;;153.23;61.10;;;;;;;;;;5092120;28;21009;-72
2023/03/04 05:56:32;;;;;;;136.00;53.67;;;;;;;;;;5092968;28;20493;-71
2023/03/04 05:58:59;;;;;;;141.07;54.03;;;;;;;;;;5092836;28;20512;-72
2023/03/04 06:01:26;;;;;;;132.17;55.30;;;;;;;;;;5092780;28;20473;-71
2023/03/04 06:03:53;;;;;;;128.03;49.87;;;;;;;;;;5091814;28;20466;-71
2023/03/04 06:06:20;;;;;;;119.27;49.50;;;;;;;;;;5091992;28;20533;-72
2023/03/04 06:08:48;;;;;;;118.73;46.57;;;;;;;;;;5092613;28;20454;-71
2023/03/04 06:11:16;;;;;;;117.93;50.70;;;;;;;;;;5092513;28;20477;-71
2023/03/04 06:13:43;;;;;;;108.23;47.77;;;;;;;;;;5092522;28;20829;-74
2023/03/04 06:16:10;;;;;;;113.60;47.40;;;;;;;;;;5092640;28;20490;-72
2023/03/04 06:18:37;;;;;;;111.30;46.13;;;;;;;;;;5092557;28;20442;-73
2023/03/04 06:21:05;;;;;;;95.20;44.20;;;;;;;;;;5092356;28;20861;-72
2023/03/04 06:23:32;;;;;;;119.17;47.43;;;;;;;;;;5092370;28;20470;-71
2023/03/04 06:26:00;;;;;;;100.43;39.73;;;;;;;;;;5092340;28;20451;-72
2023/03/04 06:28:29;;;;;;;101.10;44.30;;;;;;;;;;5092472;28;20459;-71
2023/03/04 06:30:57;;;;;;;100.27;42.63;;;;;;;;;;5092402;28;20474;-72
2023/03/04 06:33:24;;;;;;;101.23;43.10;;;;;;;;;;5092481;28;20466;-71
2023/03/04 06:35:54;;;;;;;93.77;43.67;;;;;;;;;;5094383;28;20977;-71
2023/03/04 06:38:21;;;;;;;89.20;39.40;;;;;;;;;;5096356;28;20457;-71
2023/03/04 06:40:48;;;;;;;92.30;41.57;;;;;;;;;;5096079;28;20493;-72
2023/03/04 06:43:15;;;;;;;96.97;38.77;;;;;;;;;;5095499;28;20978;-71
2023/03/04 06:45:44;;;;;;;98.60;40.33;;;;;;;;;;5095945;28;20442;-71
2023/03/04 06:48:11;;;;;;;94.43;40.83;;;;;;;;;;5096061;28;20450;-72
2023/03/04 06:50:39;;;;;;;105.20;44.93;;;;;;;;;;5096090;28;20474;-71
2023/03/04 06:53:06;;;;;;;87.60;37.40;;;;;;;;;;5095921;28;20461;-71
2023/03/04 06:55:34;;;;;;;83.57;39.27;;;;;;;;;;5095519;28;20481;-71
2023/03/04 06:58:01;;;;;;;76.37;37.23;;;;;;;;;;5095975;28;20450;-71
2023/03/04 07:00:28;;;;;;;82.67;37.80;;;;;;;;;;5095774;28;20466;-71
2023/03/04 07:02:56;;;;;;;78.13;39.13;;;;;;;;;;5095943;28;20453;-71
2023/03/04 07:05:23;;;;;;;83.60;42.43;;;;;;;;;;5095463;28;20545;-71
2023/03/04 07:07:51;;;;;;;79.07;36.30;;;;;;;;;;5095394;28;20457;-71
2023/03/04 07:10:18;;;;;;;64.77;34.53;;;;;;;;;;5095661;28;21242;-71
2023/03/04 07:12:45;;;;;;;73.27;32.73;;;;;;;;;;5095886;28;20450;-71
2023/03/04 07:15:12;;;;;;;67.70;35.17;;;;;;;;;;5095294;28;20457;-71
2023/03/04 07:17:39;;;;;;;69.27;32.70;;;;;;;;;;5095991;28;20458;-71
2023/03/04 07:20:09;;;;;;;61.53;31.20;;;;;;;;;;5095685;28;20463;-71
2023/03/04 07:22:36;;;;;;;68.37;34.50;;;;;;;;;;5095722;28;20450;-71
2023/03/04 07:25:04;;;;;;;66.37;31.67;;;;;;;;;;5095175;28;20446;-71
2023/03/04 07:27:31;;;;;;;73.23;33.93;;;;;;;;;;5095253;28;20442;-71
2023/03/04 07:29:58;;;;;;;70.37;33.50;;;;;;;;;;5095131;28;20482;-71
2023/03/04 07:32:25;;;;;;;55.40;30.13;;;;;;;;;;5095311;28;20452;-71
2023/03/04 07:34:52;;;;;;;66.33;31.30;;;;;;;;;;5095069;28;20950;-71
2023/03/04 07:37:21;;;;;;;61.90;30.60;;;;;;;;;;5094849;28;20487;-72
2023/03/04 07:39:48;;;;;;;58.87;29.47;;;;;;;;;;5095100;28;20470;-71
2023/03/04 07:42:15;;;;;;;56.93;31.33;;;;;;;;;;5095021;28;20457;-73
2023/03/04 07:44:42;;;;;;;58.00;33.37;;;;;;;;;;5094906;28;20447;-71
2023/03/04 07:47:09;;;;;;;58.00;31.50;;;;;;;;;;5094072;28;20454;-73
2023/03/04 07:49:37;;;;;;;60.40;31.77;;;;;;;;;;5094765;28;20939;-71
2023/03/04 07:52:05;;;;;;;65.47;33.97;;;;;;;;;;5095008;28;20454;-72
2023/03/04 07:54:33;;;;;;;57.53;28.50;;;;;;;;;;5094551;28;20458;-71
2023/03/04 07:57:00;;;;;;;58.43;30.60;;;;;;;;;;5094599;28;20483;-71
2023/03/04 07:59:28;;;;;;;63.33;31.87;;;;;;;;;;5094809;28;20469;-72
2023/03/04 08:01:55;;;;;;;61.60;30.47;;;;;;;;;;5094714;28;20447;-71
2023/03/04 08:04:22;;;;;;;59.50;28.63;;;;;;;;;;5094506;28;20970;-71
2023/03/04 08:06:49;;;;;;;59.80;31.03;;;;;;;;;;5094225;28;20450;-72
2023/03/04 08:09:16;;;;;;;59.17;29.13;;;;;;;;;;5094440;28;20459;-72
2023/03/04 08:11:45;;;;;;;55.30;30.67;;;;;;;;;;5094493;28;20478;-71
2023/03/04 08:14:12;;;;;;;57.33;28.90;;;;;;;;;;5094230;28;20936;-71
2023/03/04 08:16:40;;;;;;;56.10;29.83;;;;;;;;;;5094410;28;20497;-71
2023/03/04 08:19:07;;;;;;;55.47;28.17;;;;;;;;;;5094327;28;20442;-71
2023/03/04 08:21:34;;;;;;;59.07;29.07;;;;;;;;;;5094352;28;20467;-72
2023/03/04 08:24:06;;;;;;;54.53;28.53;;;;;;;;;;5094372;28;20459;-72
2023/03/04 08:26:34;;;;;;;52.87;28.50;;;;;;;;;;5094206;28;20542;-71
2023/03/04 08:29:04;;;;;;;42.40;26.20;;;;;;;;;;5094026;28;20455;-72
2023/03/04 08:31:32;;;;;;;46.97;26.27;;;;;;;;;;5094086;28;20466;-72
2023/03/04 08:33:59;;;;;;;46.93;23.80;;;;;;;;;;5094211;28;20811;-72
2023/03/04 08:36:26;;;;;;;34.83;21.47;;;;;;;;;;5093890;28;20493;-72
2023/03/04 08:38:53;;;;;;;42.70;22.70;;;;;;;;;;5093840;28;20451;-73
2023/03/04 08:41:21;;;;;;;40.47;23.97;;;;;;;;;;5073540;28;20514;-72
2023/03/04 08:43:48;;;;;;;40.73;24.90;;;;;;;;;;5073616;28;20554;-72
2023/03/04 08:46:17;;;;;;;34.30;18.27;;;;;;;;;;5073534;28;20945;-71
2023/03/04 08:48:44;;;;;;;35.30;21.43;;;;;;;;;;5073444;28;20474;-72
2023/03/04 08:51:12;;;;;;;42.83;25.20;;;;;;;;;;5073271;28;20476;-72
2023/03/04 08:53:39;;;;;;;41.30;23.93;;;;;;;;;;5091633;28;20473;-71
2023/03/04 08:56:07;;;;;;;45.20;24.70;;;;;;;;;;5092010;28;20482;-72
2023/03/04 08:58:34;;;;;;;39.57;22.83;;;;;;;;;;5091321;28;20461;-71
2023/03/04 09:01:02;;;;;;;35.00;20.67;;;;;;;;;;5092247;28;20544;-72
2023/03/04 09:03:30;;;;;;;38.63;21.77;;;;;;;;;;5092136;28;20461;-71
2023/03/04 09:05:57;;;;;;;39.60;22.33;;;;;;;;;;5091485;28;20458;-71
2023/03/04 09:08:25;;;;;;;48.60;23.30;;;;;;;;;;5092012;28;20474;-71
2023/03/04 09:10:53;;;;;;;33.67;20.30;;;;;;;;;;5092182;28;20478;-72
2023/03/04 09:13:20;;;;;;;36.30;22.17;;;;;;;;;;5087722;28;20672;-71
2023/03/04 09:15:48;;;;;;;39.53;22.87;;;;;;;;;;5071618;28;20455;-71
2023/03/04 09:18:15;;;;;;;35.13;21.63;;;;;;;;;;5071705;28;20488;-72
2023/03/04 09:20:44;;;;;;;44.33;26.00;;;;;;;;;;5071730;28;20483;-72
2023/03/04 09:23:11;;;;;;;42.90;24.80;;;;;;;;;;5071925;28;20480;-71
2023/03/04 09:25:38;;;;;;;41.70;24.17;;;;;;;;;;5071653;28;20448;-72
2023/03/04 09:28:06;;;;;;;37.43;24.07;;;;;;;;;;5071547;28;20451;-71
2023/03/04 09:30:33;;;;;;;43.73;26.43;;;;;;;;;;5071938;28;20471;-72
2023/03/04 09:33:00;;;;;;;41.57;22.07;;;;;;;;;;5071612;28;20831;-72
2023/03/04 09:35:28;;;;;;;37.83;23.60;;;;;;;;;;5071489;28;20538;-72
2023/03/04 09:37:57;;;;;;;33.97;22.47;;;;;;;;;;5071859;28;20492;-73
2023/03/04 09:40:27;;;;;;;33.30;22.20;;;;;;;;;;5071404;28;21018;-72
2023/03/04 09:42:56;;;;;;;30.80;20.33;;;;;;;;;;5071340;28;20451;-72
2023/03/04 09:45:25;;;;;;;35.40;22.00;;;;;;;;;;5071523;28;20451;-72
2023/03/04 09:47:53;;;;;;;38.10;21.67;;;;;;;;;;5077774;28;20447;-72
2023/03/04 09:50:22;;;;;;;26.73;18.13;;;;;;;;;;5072168;28;20472;-72
2023/03/04 09:53:02;;;;;;;31.53;20.00;;;;;;;;;;5071989;28;20455;-72
2023/03/04 09:55:32;;;;;;;31.67;20.70;;;;;;;;;;5071585;28;20497;-72
2023/03/04 09:58:04;;;;;;;31.33;19.57;;;;;;;;;;5071770;28;20515;-73
2023/03/04 10:00:36;;;;;;;32.73;18.50;;;;;;;;;;5071688;28;20479;-72
2023/03/04 10:03:12;;;;;;;28.37;18.63;;;;;;;;;;5071608;28;20439;-72
2023/03/04 10:05:44;;;;;;;33.80;18.00;;;;;;;;;;5070925;28;20824;-73
2023/03/04 10:08:22;;;;;;;28.80;20.10;;;;;;;;;;5082774;28;20466;-72
2023/03/04 10:10:52;;;;;;;28.53;20.40;;;;;;;;;;5094897;28;20478;-72
2023/03/04 10:13:23;;;;;;;28.93;17.13;;;;;;;;;;5096510;28;20451;-72
2023/03/04 10:15:55;;;;;;;30.43;19.30;;;;;;;;;;5096216;28;20457;-72
2023/03/04 10:18:25;;;;;;;27.07;17.10;;;;;;;;;;5095650;28;20489;-72
2023/03/04 10:20:57;;;;;;;31.70;18.87;;;;;;;;;;5095098;28;20486;-71
2023/03/04 10:23:27;;;;;;;27.10;17.60;;;;;;;;;;5095479;28;20537;-71
2023/03/04 10:25:54;;;;;;;30.67;18.53;;;;;;;;;;5095859;28;20825;-71
2023/03/04 10:28:24;;;;;;;29.43;20.70;;;;;;;;;;5095370;28;20466;-74
2023/03/04 10:30:54;;;;;;;29.07;18.87;;;;;;;;;;5095743;28;20470;-71
2023/03/04 10:33:22;;;;;;;27.70;17.90;;;;;;;;;;5095661;28;20981;-72
2023/03/04 10:35:51;;;;;;;27.63;19.27;;;;;;;;;;5095418;28;20454;-71
2023/03/04 10:38:19;;;;;;;27.87;18.17;;;;;;;;;;5095993;28;20539;-71
2023/03/04 10:40:51;;;;;;;30.10;18.30;;;;;;;;;;5095631;28;20501;-71
2023/03/04 10:43:20;;;;;;;26.33;18.37;;;;;;;;;;5096906;28;20493;-71
2023/03/04 10:45:49;;;;;;;25.83;17.43;;;;;;;;;;5095925;28;20563;-71
2023/03/04 10:48:22;;;;;;;31.30;19.63;;;;;;;;;;5096375;28;20450;-71
2023/03/04 10:50:55;;;;;;;25.40;16.00;;;;;;;;;;5096627;28;20562;-72
2023/03/04 10:53:33;;;;;;;30.03;17.70;;;;;;;;;;5097101;28;20443;-74
2023/03/04 10:56:06;;;;;;;28.27;18.03;;;;;;;;;;5097175;28;20443;-72
2023/03/04 10:58:34;;;;;;;26.67;17.80;;;;;;;;;;5096913;28;20565;-72
2023/03/04 11:01:06;;;;;;;28.80;18.20;;;;;;;;;;5097042;28;20545;-74
2023/03/04 11:03:35;;;;;;;28.43;17.93;;;;;;;;;;5096420;28;20461;-74
2023/03/04 11:06:12;;;;;;;26.30;17.87;;;;;;;;;;5093159;28;20550;-72
2023/03/04 11:08:40;;;;;;;22.40;14.73;;;;;;;;;;5094442;28;20456;-72
2023/03/04 11:11:23;;;;;;;23.10;17.83;;;;;;;;;;5095025;28;20467;-71
2023/03/04 11:13:57;;;;;;;24.30;16.57;;;;;;;;;;5094238;28;20450;-71
2023/03/04 11:16:26;;;;;;;27.60;17.90;;;;;;;;;;5094802;28;20455;-74
2023/03/04 11:18:54;;;;;;;27.00;17.80;;;;;;;;;;5092312;28;20482;-72
2023/03/04 11:21:22;;;;;;;23.57;16.70;;;;;;;;;;5074199;28;20975;-72
2023/03/04 11:23:51;;;;;;;27.77;17.20;;;;;;;;;;5075317;28;20444;-72
2023/03/04 11:26:20;;;;;;;25.80;16.33;;;;;;;;;;5075393;28;21017;-72
2023/03/04 11:28:50;;;;;;;25.97;17.57;;;;;;;;;;5075707;28;20820;-72
2023/03/04 11:31:21;;;;;;;25.10;16.57;;;;;;;;;;5075140;28;20525;-72
2023/03/04 11:33:50;;;;;;;25.37;16.33;;;;;;;;;;5075045;28;20464;-72
2023/03/04 11:36:28;;;;;;;26.40;18.00;;;;;;;;;;5074791;28;20517;-75
2023/03/04 11:38:56;;;;;;;22.50;15.67;;;;;;;;;;5075087;28;21068;-72
2023/03/04 11:41:26;;;;;;;30.50;17.73;;;;;;;;;;5075153;28;20847;-72
2023/03/04 11:43:53;;;;;;;30.90;18.23;;;;;;;;;;5074992;28;20823;-72
2023/03/04 11:46:35;;;;;;;24.83;17.47;;;;;;;;;;5075103;28;20447;-72
2023/03/04 11:49:13;;;;;;;27.53;18.13;;;;;;;;;;5074968;28;20439;-72
2023/03/04 11:51:43;;;;;;;34.80;20.43;;;;;;;;;;5075031;28;20474;-72
2023/03/04 11:54:17;;;;;;;31.73;19.50;;;;;;;;;;5074761;28;20452;-72
2023/03/04 11:56:45;;;;;;;31.90;20.10;;;;;;;;;;5074684;28;20455;-71
2023/03/04 11:59:29;;;;;;;27.83;19.67;;;;;;;;;;5074872;28;20515;-72
2023/03/04 12:02:00;;;;;;;30.20;21.50;;;;;;;;;;5074761;28;20548;-72
2023/03/04 12:04:41;;;;;;;24.57;18.43;;;;;;;;;;5074696;28;20959;-72
2023/03/04 12:07:18;;;;;;;31.07;19.27;;;;;;;;;;5074345;28;20936;-72
2023/03/04 12:09:48;;;;;;;26.57;18.07;;;;;;;;;;5074051;28;20941;-71
2023/03/04 12:12:34;;;;;;;34.47;20.07;;;;;;;;;;5074520;28;20447;-71
2023/03/04 12:15:10;;;;;;;30.37;19.57;;;;;;;;;;5074215;28;20451;-72
2023/03/04 12:17:41;;;;;;;31.43;22.03;;;;;;;;;;5074271;28;20497;-72
2023/03/04 12:20:24;;;;;;;29.83;17.90;;;;;;;;;;5074155;28;20464;-72
2023/03/04 12:22:53;;;;;;;32.43;18.50;;;;;;;;;;5074380;28;20505;-72
2023/03/04 12:25:33;;;;;;;28.53;18.70;;;;;;;;;;5073997;28;20451;-72
2023/03/04 12:28:04;;;;;;;35.50;21.40;;;;;;;;;;5074420;28;20455;-72
2023/03/04 12:30:36;;;;;;;35.70;22.20;;;;;;;;;;5074202;28;20556;-72
2023/03/04 12:33:05;;;;;;;33.30;19.97;;;;;;;;;;5073951;28;20998;-72
2023/03/04 12:35:37;;;;;;;38.13;21.20;;;;;;;;;;5074051;28;20456;-72
2023/03/04 12:38:13;;;;;;;31.67;20.00;;;;;;;;;;5073851;28;20486;-72
2023/03/04 12:40:45;;;;;;;36.73;21.23;;;;;;;;;;5073912;28;20532;-72
2023/03/04 12:43:19;;;;;;;33.77;20.00;;;;;;;;;;5073842;28;20940;-72
2023/03/04 12:45:49;;;;;;;31.70;20.80;;;;;;;;;;5073772;28;20958;-72
2023/03/04 12:48:24;;;;;;;28.47;20.67;;;;;;;;;;5073675;28;20440;-72
2023/03/04 12:50:57;;;;;;;31.73;21.27;;;;;;;;;;5073782;28;20479;-72
2023/03/04 12:53:28;;;;;;;26.23;17.70;;;;;;;;;;5074031;28;20463;-72
2023/03/04 12:55:57;;;;;;;27.87;17.63;;;;;;;;;;5073741;28;20995;-72
2023/03/04 12:58:26;;;;;;;23.47;16.60;;;;;;;;;;5073530;28;20483;-72
2023/03/04 13:00:57;;;;;;;30.50;18.33;;;;;;;;;;5073453;28;20467;-73
2023/03/04 13:03:26;;;;;;;26.80;18.03;;;;;;;;;;5073529;28;20458;-73
2023/03/04 13:06:02;;;;;;;27.13;17.03;;;;;;;;;;5072936;28;20458;-73
2023/03/04 13:08:31;;;;;;;23.47;15.90;;;;;;;;;;5073371;28;20490;-72
2023/03/04 13:11:02;;;;;;;25.13;15.77;;;;;;;;;;5073325;28;20564;-72
2023/03/04 13:13:37;;;;;;;22.13;13.90;;;;;;;;;;5073216;28;20497;-73
2023/03/04 13:16:05;;;;;;;23.93;15.43;;;;;;;;;;5073085;28;20455;-72
2023/03/04 13:18:34;;;;;;;21.10;14.07;;;;;;;;;;5073243;28;20836;-72
2023/03/04 13:21:24;;;;;;;22.50;14.77;;;;;;;;;;5073013;28;20478;-72
2023/03/04 13:23:51;;;;;;;25.23;14.57;;;;;;;;;;5072960;28;20455;-72
2023/03/04 13:26:20;;;;;;;20.40;12.90;;;;;;;;;;5072987;28;20924;-72
2023/03/04 13:28:52;;;;;;;21.97;12.13;;;;;;;;;;5073156;28;20794;-72
2023/03/04 13:31:26;;;;;;;18.37;11.80;;;;;;;;;;5072930;28;20976;-72
2023/03/04 13:34:03;;;;;;;19.30;12.13;;;;;;;;;;5073013;28;20495;-72
2023/03/04 13:36:53;;;;;;;20.27;12.93;;;;;;;;;;5073025;28;20470;-72
2023/03/04 13:39:26;;;;;;;20.30;12.37;;;;;;;;;;5072854;28;20579;-72
2023/03/04 13:41:54;;;;;;;21.10;12.60;;;;;;;;;;5072901;28;20616;-72
2023/03/04 13:44:45;;;;;;;18.80;12.00;;;;;;;;;;5072213;28;20462;-72
2023/03/04 13:47:15;;;;;;;18.60;11.27;;;;;;;;;;5067275;28;20456;-72
2023/03/04 13:49:43;;;;;;;17.00;11.40;;;;;;;;;;5072741;28;20443;-72
2023/03/04 13:52:28;;;;;;;20.07;12.53;;;;;;;;;;5072703;28;20452;-72
2023/03/04 13:55:10;;;;;;;25.83;12.03;;;;;;;;;;5072607;28;20936;-73
2023/03/04 13:57:48;;;;;;;19.80;13.23;;;;;;;;;;5072453;28;20456;-72
2023/03/04 14:00:16;;;;;;;24.70;10.97;;;;;;;;;;5072524;28;20988;-72
2023/03/04 14:02:43;;;;;;;23.53;12.10;;;;;;;;;;5072706;28;20451;-72
2023/03/04 14:05:12;;;;;;;15.40;10.10;;;;;;;;;;5072359;28;20837;-72
2023/03/04 14:07:39;;;;;;;16.90;11.63;;;;;;;;;;5072177;28;20967;-72
2023/03/04 14:10:08;;;;;;;16.50;11.40;;;;;;;;;;5072493;28;20471;-72
2023/03/04 14:12:36;;;;;;;18.07;10.83;;;;;;;;;;5072880;28;20458;-72
2023/03/04 14:15:18;;;;;;;16.40;9.90;;;;;;;;;;5072323;28;20454;-72
2023/03/04 14:17:47;;;;;;;16.13;11.50;;;;;;;;;;5072670;28;20827;-71
2023/03/04 14:20:24;;;;;;;21.13;12.47;;;;;;;;;;5072564;28;20483;-72
2023/03/04 14:22:51;;;;;;;16.60;10.83;;;;;;;;;;5072655;28;20455;-72
2023/03/04 14:25:22;;;;;;;19.40;11.60;;;;;;;;;;5072214;28;20455;-72